N21SM TIST-MDJB
Flight info
| Callsign | N21SM |
|---|---|
| Flight time | 1h 17m |
| Altitude | 26000 |
| Route | PALCO7 PALCO RTE6 SJU RTE2 BOCCA DCT BQN B520 ANTEX/N0271F180 B520 CDO DCT DHG |
| Aircraft | SF50/L-SDGRWY/L |
Departure
| Time | 2026-04-30 02:09 |
|---|---|
| Airport | Cyril E. King Airport (TIST) |
Arrival
| Time | 2026-04-30 03:26 |
|---|---|
| Airport | La Isabela International Airport (MDJB) |
| Time | Latitude | Longitude | Altitude | Speed | Heading |
|---|---|---|---|---|---|
| 2026-04-30 01:59 | 18.33941 | -64.96614 | 29 ft | 0 kts | 181° |
| 2026-04-30 02:04 | 18.33931 | -64.96618 | 29 ft | 7 kts | 224° |
| 2026-04-30 02:04 | 18.33921 | -64.96636 | 29 ft | 11 kts | 254° |
| 2026-04-30 02:04 | 18.33874 | -64.96688 | 28 ft | 12 kts | 177° |
| 2026-04-30 02:04 | 18.33783 | -64.96683 | 28 ft | 17 kts | 181° |
| 2026-04-30 02:05 | 18.33756 | -64.96771 | 26 ft | 12 kts | 267° |
| 2026-04-30 02:05 | 18.33752 | -64.96860 | 25 ft | 12 kts | 267° |
| 2026-04-30 02:05 | 18.33748 | -64.96964 | 28 ft | 17 kts | 267° |
| 2026-04-30 02:05 | 18.33742 | -64.97131 | 32 ft | 29 kts | 268° |
| 2026-04-30 02:06 | 18.33728 | -64.97333 | 31 ft | 29 kts | 266° |
| 2026-04-30 02:06 | 18.33716 | -64.97518 | 33 ft | 23 kts | 267° |
| 2026-04-30 02:06 | 18.33713 | -64.97669 | 31 ft | 19 kts | 269° |
| 2026-04-30 02:06 | 18.33709 | -64.97812 | 26 ft | 21 kts | 268° |
| 2026-04-30 02:07 | 18.33705 | -64.97977 | 26 ft | 24 kts | 268° |
| 2026-04-30 02:07 | 18.33700 | -64.98159 | 24 ft | 26 kts | 266° |
| 2026-04-30 02:07 | 18.33690 | -64.98335 | 23 ft | 8 kts | 311° |
| 2026-04-30 02:07 | 18.33689 | -64.98318 | 23 ft | 0 kts | 86° |
| 2026-04-30 02:08 | 18.33691 | -64.98293 | 23 ft | 22 kts | 86° |
| 2026-04-30 02:09 | 18.33709 | -64.97882 | 26 ft | 88 kts | 87° |
| 2026-04-30 02:09 | 18.33751 | -64.97034 | 55 ft | 144 kts | 87° |
| 2026-04-30 02:09 | 18.33788 | -64.95902 | 759 ft | 116 kts | 89° |
| 2026-04-30 02:09 | 18.33798 | -64.94974 | 1805 ft | 117 kts | 95° |
| 2026-04-30 02:10 | 18.33366 | -64.94386 | 2623 ft | 105 kts | 163° |
| 2026-04-30 02:10 | 18.32636 | -64.94270 | 3090 ft | 110 kts | 166° |
| 2026-04-30 02:10 | 18.31848 | -64.94287 | 3510 ft | 124 kts | 200° |
| 2026-04-30 02:10 | 18.31144 | -64.94852 | 3952 ft | 133 kts | 231° |
| 2026-04-30 02:11 | 18.30628 | -64.95695 | 4396 ft | 142 kts | 234° |
| 2026-04-30 02:11 | 18.30045 | -64.96564 | 4821 ft | 149 kts | 234° |
| 2026-04-30 02:11 | 18.29450 | -64.97486 | 5263 ft | 157 kts | 235° |
| 2026-04-30 02:11 | 18.28824 | -64.98468 | 5785 ft | 165 kts | 235° |
| 2026-04-30 02:12 | 18.28167 | -64.99485 | 6359 ft | 170 kts | 235° |
| 2026-04-30 02:12 | 18.27498 | -65.00525 | 6908 ft | 173 kts | 236° |
| 2026-04-30 02:12 | 18.26826 | -65.01578 | 7472 ft | 174 kts | 236° |
| 2026-04-30 02:12 | 18.26151 | -65.02634 | 8039 ft | 174 kts | 236° |
| 2026-04-30 02:13 | 18.25490 | -65.03697 | 8612 ft | 173 kts | 242° |
| 2026-04-30 02:13 | 18.25211 | -65.04890 | 9176 ft | 171 kts | 270° |
| 2026-04-30 02:13 | 18.25389 | -65.06112 | 9762 ft | 168 kts | 285° |
| 2026-04-30 02:13 | 18.25660 | -65.07305 | 10295 ft | 167 kts | 283° |
| 2026-04-30 02:14 | 18.25909 | -65.08490 | 10817 ft | 165 kts | 283° |
| 2026-04-30 02:14 | 18.26167 | -65.09661 | 11340 ft | 163 kts | 283° |
| 2026-04-30 02:14 | 18.26420 | -65.10815 | 11855 ft | 161 kts | 282° |
| 2026-04-30 02:14 | 18.26669 | -65.11957 | 12369 ft | 159 kts | 282° |
| 2026-04-30 02:15 | 18.26918 | -65.13086 | 12877 ft | 157 kts | 282° |
| 2026-04-30 02:15 | 18.27161 | -65.14202 | 13380 ft | 156 kts | 282° |
| 2026-04-30 02:15 | 18.27400 | -65.15307 | 13867 ft | 154 kts | 282° |
| 2026-04-30 02:15 | 18.27641 | -65.16405 | 14295 ft | 153 kts | 281° |
| 2026-04-30 02:16 | 18.27877 | -65.17492 | 14720 ft | 152 kts | 281° |
| 2026-04-30 02:16 | 18.28113 | -65.18573 | 15143 ft | 151 kts | 280° |
| 2026-04-30 02:16 | 18.28348 | -65.19648 | 15502 ft | 155 kts | 280° |
| 2026-04-30 02:16 | 18.28598 | -65.20804 | 15708 ft | 168 kts | 280° |
| 2026-04-30 02:17 | 18.28873 | -65.22048 | 15921 ft | 180 kts | 280° |
| 2026-04-30 02:17 | 18.29163 | -65.23375 | 16130 ft | 192 kts | 280° |
| 2026-04-30 02:17 | 18.29466 | -65.24785 | 16342 ft | 204 kts | 279° |
| 2026-04-30 02:17 | 18.29770 | -65.26289 | 16555 ft | 215 kts | 279° |
| 2026-04-30 02:18 | 18.30093 | -65.27846 | 16761 ft | 223 kts | 279° |
| 2026-04-30 02:18 | 18.30427 | -65.29468 | 16966 ft | 230 kts | 279° |
| 2026-04-30 02:18 | 18.30774 | -65.31140 | 17173 ft | 236 kts | 279° |
| 2026-04-30 02:18 | 18.31127 | -65.32851 | 17378 ft | 241 kts | 279° |
| 2026-04-30 02:19 | 18.31487 | -65.34592 | 17585 ft | 245 kts | 279° |
| 2026-04-30 02:19 | 18.31846 | -65.36332 | 17788 ft | 248 kts | 279° |
| 2026-04-30 02:19 | 18.32213 | -65.38112 | 17994 ft | 250 kts | 279° |
| 2026-04-30 02:19 | 18.32588 | -65.39930 | 18207 ft | 251 kts | 279° |
| 2026-04-30 02:20 | 18.32953 | -65.41710 | 18396 ft | 253 kts | 279° |
| 2026-04-30 02:20 | 18.33326 | -65.43520 | 18578 ft | 253 kts | 278° |
| 2026-04-30 02:20 | 18.33698 | -65.45334 | 18752 ft | 254 kts | 278° |
| 2026-04-30 02:20 | 18.34072 | -65.47148 | 18933 ft | 254 kts | 278° |
| 2026-04-30 02:21 | 18.34443 | -65.48960 | 19114 ft | 254 kts | 278° |
| 2026-04-30 02:21 | 18.34818 | -65.50779 | 19296 ft | 254 kts | 278° |
| 2026-04-30 02:21 | 18.35190 | -65.52594 | 19481 ft | 253 kts | 278° |
| 2026-04-30 02:21 | 18.35561 | -65.54402 | 19665 ft | 253 kts | 278° |
| 2026-04-30 02:22 | 18.35932 | -65.56213 | 19850 ft | 252 kts | 278° |
| 2026-04-30 02:22 | 18.36302 | -65.58022 | 20038 ft | 252 kts | 278° |
| 2026-04-30 02:22 | 18.36672 | -65.59824 | 20222 ft | 252 kts | 278° |
| 2026-04-30 02:22 | 18.37040 | -65.61622 | 20410 ft | 251 kts | 278° |
| 2026-04-30 02:23 | 18.37409 | -65.63418 | 20601 ft | 251 kts | 278° |
| 2026-04-30 02:23 | 18.37776 | -65.65212 | 20790 ft | 250 kts | 278° |
| 2026-04-30 02:23 | 18.38138 | -65.66978 | 20984 ft | 250 kts | 278° |
| 2026-04-30 02:23 | 18.38503 | -65.68763 | 21176 ft | 249 kts | 278° |
| 2026-04-30 02:24 | 18.38867 | -65.70544 | 21370 ft | 248 kts | 278° |
| 2026-04-30 02:24 | 18.39230 | -65.72324 | 21572 ft | 248 kts | 278° |
| 2026-04-30 02:24 | 18.39593 | -65.74095 | 21765 ft | 247 kts | 278° |
| 2026-04-30 02:24 | 18.39953 | -65.75864 | 21967 ft | 247 kts | 278° |
| 2026-04-30 02:25 | 18.40314 | -65.77628 | 22166 ft | 246 kts | 277° |
| 2026-04-30 02:25 | 18.40674 | -65.79391 | 22368 ft | 246 kts | 277° |
| 2026-04-30 02:25 | 18.41033 | -65.81151 | 22573 ft | 245 kts | 277° |
| 2026-04-30 02:25 | 18.41148 | -65.81716 | 22641 ft | 245 kts | 277° |
| 2026-04-30 02:26 | 18.41222 | -65.82081 | 22679 ft | 245 kts | 277° |
| 2026-04-30 02:26 | 18.41574 | -65.83810 | 22882 ft | 244 kts | 277° |
| 2026-04-30 02:26 | 18.41929 | -65.85556 | 23090 ft | 244 kts | 277° |
| 2026-04-30 02:26 | 18.42283 | -65.87298 | 23302 ft | 243 kts | 277° |
| 2026-04-30 02:27 | 18.42637 | -65.89037 | 23510 ft | 242 kts | 277° |
| 2026-04-30 02:27 | 18.42988 | -65.90769 | 23702 ft | 242 kts | 277° |
| 2026-04-30 02:27 | 18.43340 | -65.92501 | 23870 ft | 241 kts | 277° |
| 2026-04-30 02:27 | 18.43689 | -65.94225 | 24047 ft | 240 kts | 277° |
| 2026-04-30 02:28 | 18.44037 | -65.95941 | 24224 ft | 240 kts | 277° |
| 2026-04-30 02:28 | 18.44386 | -65.97662 | 24403 ft | 240 kts | 277° |
| 2026-04-30 02:28 | 18.44676 | -65.99382 | 24576 ft | 237 kts | 271° |
| 2026-04-30 02:28 | 18.44741 | -66.01105 | 24755 ft | 235 kts | 269° |
| 2026-04-30 02:29 | 18.44831 | -66.02821 | 24934 ft | 235 kts | 270° |
| 2026-04-30 02:29 | 18.44925 | -66.04537 | 25117 ft | 234 kts | 270° |
| 2026-04-30 02:29 | 18.45008 | -66.06241 | 25300 ft | 233 kts | 270° |
| 2026-04-30 02:29 | 18.45091 | -66.07944 | 25482 ft | 232 kts | 270° |
| 2026-04-30 02:30 | 18.45175 | -66.09648 | 25668 ft | 232 kts | 270° |
| 2026-04-30 02:30 | 18.45259 | -66.11341 | 25853 ft | 232 kts | 270° |
| 2026-04-30 02:30 | 18.45342 | -66.13035 | 26004 ft | 233 kts | 270° |
| 2026-04-30 02:30 | 18.45427 | -66.14760 | 26002 ft | 239 kts | 270° |
| 2026-04-30 02:31 | 18.45513 | -66.16530 | 26011 ft | 245 kts | 270° |
| 2026-04-30 02:31 | 18.45603 | -66.18337 | 26014 ft | 249 kts | 270° |
| 2026-04-30 02:31 | 18.45691 | -66.20152 | 26015 ft | 253 kts | 270° |
| 2026-04-30 02:31 | 18.45783 | -66.22006 | 26017 ft | 255 kts | 270° |
| 2026-04-30 02:32 | 18.45874 | -66.23886 | 26018 ft | 258 kts | 270° |
| 2026-04-30 02:32 | 18.45966 | -66.25778 | 26018 ft | 259 kts | 270° |
| 2026-04-30 02:32 | 18.46059 | -66.27687 | 26017 ft | 261 kts | 270° |
| 2026-04-30 02:32 | 18.46152 | -66.29599 | 26018 ft | 262 kts | 270° |
| 2026-04-30 02:33 | 18.46245 | -66.31527 | 26018 ft | 264 kts | 270° |
| 2026-04-30 02:33 | 18.46337 | -66.33459 | 26021 ft | 265 kts | 270° |
| 2026-04-30 02:33 | 18.46432 | -66.35412 | 26020 ft | 267 kts | 270° |
| 2026-04-30 02:33 | 18.46526 | -66.37363 | 26022 ft | 267 kts | 270° |
| 2026-04-30 02:34 | 18.46619 | -66.39317 | 26021 ft | 268 kts | 270° |
| 2026-04-30 02:34 | 18.46711 | -66.41256 | 26022 ft | 268 kts | 270° |
| 2026-04-30 02:34 | 18.46805 | -66.43251 | 26019 ft | 269 kts | 270° |
| 2026-04-30 02:34 | 18.46898 | -66.45194 | 26020 ft | 269 kts | 270° |
| 2026-04-30 02:35 | 18.46991 | -66.47167 | 26023 ft | 270 kts | 270° |
| 2026-04-30 02:35 | 18.47084 | -66.49139 | 26021 ft | 270 kts | 270° |
| 2026-04-30 02:35 | 18.47178 | -66.51116 | 26023 ft | 271 kts | 270° |
| 2026-04-30 02:35 | 18.47271 | -66.53095 | 26025 ft | 271 kts | 270° |
| 2026-04-30 02:36 | 18.47363 | -66.55077 | 26028 ft | 271 kts | 270° |
| 2026-04-30 02:36 | 18.47456 | -66.57065 | 26027 ft | 271 kts | 270° |
| 2026-04-30 02:36 | 18.47550 | -66.59049 | 26028 ft | 272 kts | 270° |
| 2026-04-30 02:36 | 18.47641 | -66.61039 | 26026 ft | 272 kts | 270° |
| 2026-04-30 02:37 | 18.47733 | -66.63032 | 26027 ft | 272 kts | 270° |
| 2026-04-30 02:37 | 18.47821 | -66.65023 | 26027 ft | 272 kts | 270° |
| 2026-04-30 02:37 | 18.47912 | -66.67015 | 26026 ft | 272 kts | 270° |
| 2026-04-30 02:37 | 18.48002 | -66.69008 | 26025 ft | 272 kts | 270° |
| 2026-04-30 02:38 | 18.48093 | -66.71000 | 26026 ft | 272 kts | 270° |
| 2026-04-30 02:38 | 18.48183 | -66.72998 | 26028 ft | 272 kts | 270° |
| 2026-04-30 02:38 | 18.48273 | -66.74992 | 26023 ft | 273 kts | 270° |
| 2026-04-30 02:38 | 18.48363 | -66.76987 | 26025 ft | 273 kts | 270° |
| 2026-04-30 02:39 | 18.48452 | -66.78982 | 26023 ft | 273 kts | 270° |
| 2026-04-30 02:39 | 18.48540 | -66.80951 | 26025 ft | 273 kts | 270° |
| 2026-04-30 02:39 | 18.48628 | -66.82950 | 26022 ft | 273 kts | 270° |
| 2026-04-30 02:39 | 18.48718 | -66.84945 | 26021 ft | 273 kts | 270° |
| 2026-04-30 02:40 | 18.48806 | -66.86946 | 26024 ft | 273 kts | 270° |
| 2026-04-30 02:40 | 18.48895 | -66.88945 | 26022 ft | 273 kts | 270° |
| 2026-04-30 02:40 | 18.48984 | -66.90952 | 26021 ft | 273 kts | 270° |
| 2026-04-30 02:40 | 18.49071 | -66.92951 | 26024 ft | 273 kts | 270° |
| 2026-04-30 02:41 | 18.49130 | -66.94277 | 26025 ft | 273 kts | 270° |
| 2026-04-30 02:41 | 18.49218 | -66.96281 | 26023 ft | 274 kts | 270° |
| 2026-04-30 02:41 | 18.49306 | -66.98281 | 26024 ft | 274 kts | 270° |
| 2026-04-30 02:41 | 18.49393 | -67.00284 | 26025 ft | 274 kts | 270° |
| 2026-04-30 02:42 | 18.49480 | -67.02283 | 26024 ft | 274 kts | 270° |
| 2026-04-30 02:42 | 18.49566 | -67.04290 | 26026 ft | 274 kts | 270° |
| 2026-04-30 02:42 | 18.49653 | -67.06293 | 26023 ft | 274 kts | 270° |
| 2026-04-30 02:42 | 18.49739 | -67.08296 | 26025 ft | 274 kts | 270° |
| 2026-04-30 02:43 | 18.49826 | -67.10302 | 26026 ft | 274 kts | 270° |
| 2026-04-30 02:43 | 18.49826 | -67.12300 | 26022 ft | 272 kts | 266° |
| 2026-04-30 02:43 | 18.49779 | -67.14295 | 26023 ft | 273 kts | 267° |
| 2026-04-30 02:43 | 18.49741 | -67.16293 | 26024 ft | 273 kts | 267° |
| 2026-04-30 02:44 | 18.49703 | -67.18294 | 26022 ft | 273 kts | 267° |
| 2026-04-30 02:44 | 18.49664 | -67.20292 | 26026 ft | 273 kts | 267° |
| 2026-04-30 02:44 | 18.49624 | -67.22291 | 26023 ft | 273 kts | 267° |
| 2026-04-30 02:44 | 18.49584 | -67.24267 | 26024 ft | 273 kts | 267° |
| 2026-04-30 02:45 | 18.49544 | -67.26292 | 26022 ft | 273 kts | 267° |
| 2026-04-30 02:45 | 18.49503 | -67.28292 | 26021 ft | 273 kts | 267° |
| 2026-04-30 02:45 | 18.49463 | -67.30297 | 26021 ft | 273 kts | 267° |
| 2026-04-30 02:45 | 18.49423 | -67.32272 | 26020 ft | 273 kts | 267° |
| 2026-04-30 02:46 | 18.49382 | -67.34276 | 26020 ft | 273 kts | 267° |
| 2026-04-30 02:46 | 18.49342 | -67.36278 | 26019 ft | 273 kts | 267° |
| 2026-04-30 02:46 | 18.49301 | -67.38281 | 26017 ft | 273 kts | 266° |
| 2026-04-30 02:46 | 18.49260 | -67.40280 | 26018 ft | 273 kts | 266° |
| 2026-04-30 02:47 | 18.49219 | -67.42284 | 26016 ft | 274 kts | 266° |
| 2026-04-30 02:47 | 18.49177 | -67.44291 | 26014 ft | 274 kts | 266° |
| 2026-04-30 02:47 | 18.49135 | -67.46296 | 26014 ft | 274 kts | 266° |
| 2026-04-30 02:47 | 18.49093 | -67.48300 | 26015 ft | 274 kts | 266° |
| 2026-04-30 02:48 | 18.49051 | -67.50302 | 26012 ft | 274 kts | 266° |
| 2026-04-30 02:48 | 18.49008 | -67.52308 | 26013 ft | 274 kts | 266° |
| 2026-04-30 02:48 | 18.48965 | -67.54311 | 26014 ft | 274 kts | 266° |
| 2026-04-30 02:48 | 18.48922 | -67.56313 | 26012 ft | 273 kts | 266° |
| 2026-04-30 02:49 | 18.48879 | -67.58316 | 26011 ft | 273 kts | 266° |
| 2026-04-30 02:49 | 18.48836 | -67.60317 | 26012 ft | 273 kts | 266° |
| 2026-04-30 02:49 | 18.48793 | -67.62321 | 26012 ft | 273 kts | 266° |
| 2026-04-30 02:49 | 18.48749 | -67.64322 | 26012 ft | 273 kts | 266° |
| 2026-04-30 02:50 | 18.48704 | -67.66318 | 26013 ft | 273 kts | 266° |
| 2026-04-30 02:50 | 18.48659 | -67.68319 | 26012 ft | 273 kts | 266° |
| 2026-04-30 02:50 | 18.48615 | -67.70288 | 26012 ft | 273 kts | 266° |
| 2026-04-30 02:50 | 18.48570 | -67.72281 | 26013 ft | 273 kts | 266° |
| 2026-04-30 02:51 | 18.48525 | -67.74281 | 26013 ft | 273 kts | 266° |
| 2026-04-30 02:51 | 18.48480 | -67.76276 | 26014 ft | 272 kts | 266° |
| 2026-04-30 02:51 | 18.48435 | -67.78267 | 26011 ft | 272 kts | 266° |
| 2026-04-30 02:51 | 18.48389 | -67.80266 | 26014 ft | 272 kts | 266° |
| 2026-04-30 02:52 | 18.48343 | -67.82260 | 26013 ft | 272 kts | 266° |
| 2026-04-30 02:52 | 18.48297 | -67.84253 | 26014 ft | 272 kts | 266° |
| 2026-04-30 02:52 | 18.48251 | -67.86246 | 26013 ft | 272 kts | 266° |
| 2026-04-30 02:52 | 18.48204 | -67.88239 | 26013 ft | 272 kts | 266° |
| 2026-04-30 02:53 | 18.48159 | -67.90232 | 26011 ft | 272 kts | 266° |
| 2026-04-30 02:53 | 18.48111 | -67.92226 | 26012 ft | 272 kts | 266° |
| 2026-04-30 02:53 | 18.48064 | -67.94217 | 26012 ft | 272 kts | 266° |
| 2026-04-30 02:53 | 18.48017 | -67.96204 | 26011 ft | 271 kts | 266° |
| 2026-04-30 02:54 | 18.47971 | -67.98195 | 26012 ft | 271 kts | 266° |
| 2026-04-30 02:54 | 18.47924 | -68.00155 | 26011 ft | 271 kts | 266° |
| 2026-04-30 02:54 | 18.47881 | -68.02142 | 26011 ft | 271 kts | 266° |
| 2026-04-30 02:54 | 18.47844 | -68.04127 | 26012 ft | 271 kts | 266° |
| 2026-04-30 02:55 | 18.47802 | -68.06136 | 26012 ft | 271 kts | 266° |
| 2026-04-30 02:55 | 18.47761 | -68.08096 | 26013 ft | 271 kts | 266° |
| 2026-04-30 02:55 | 18.47720 | -68.10081 | 26015 ft | 271 kts | 266° |
| 2026-04-30 02:55 | 18.47677 | -68.12070 | 26014 ft | 271 kts | 266° |
| 2026-04-30 02:56 | 18.47636 | -68.14057 | 26013 ft | 271 kts | 266° |
| 2026-04-30 02:56 | 18.47593 | -68.16043 | 26014 ft | 271 kts | 266° |
| 2026-04-30 02:56 | 18.47552 | -68.18029 | 26013 ft | 271 kts | 266° |
| 2026-04-30 02:56 | 18.47509 | -68.20011 | 26016 ft | 271 kts | 266° |
| 2026-04-30 02:57 | 18.47467 | -68.21996 | 26017 ft | 271 kts | 266° |
| 2026-04-30 02:57 | 18.47423 | -68.23977 | 26015 ft | 271 kts | 266° |
| 2026-04-30 02:57 | 18.47380 | -68.25958 | 26020 ft | 271 kts | 266° |
| 2026-04-30 02:57 | 18.47337 | -68.27941 | 26018 ft | 270 kts | 266° |
| 2026-04-30 02:58 | 18.47292 | -68.29920 | 26019 ft | 270 kts | 266° |
| 2026-04-30 02:58 | 18.47249 | -68.31901 | 26020 ft | 270 kts | 266° |
| 2026-04-30 02:58 | 18.47204 | -68.33878 | 26020 ft | 270 kts | 266° |
| 2026-04-30 02:58 | 18.47159 | -68.35859 | 26019 ft | 270 kts | 266° |
| 2026-04-30 02:59 | 18.47115 | -68.37838 | 26012 ft | 270 kts | 266° |
| 2026-04-30 02:59 | 18.47070 | -68.39820 | 26013 ft | 270 kts | 266° |
| 2026-04-30 02:59 | 18.47025 | -68.41798 | 26012 ft | 270 kts | 266° |
| 2026-04-30 02:59 | 18.46980 | -68.43776 | 26013 ft | 270 kts | 266° |
| 2026-04-30 03:00 | 18.46934 | -68.45760 | 26011 ft | 271 kts | 266° |
| 2026-04-30 03:00 | 18.46889 | -68.47738 | 26013 ft | 271 kts | 266° |
| 2026-04-30 03:00 | 18.46844 | -68.49719 | 26009 ft | 271 kts | 266° |
| 2026-04-30 03:00 | 18.46796 | -68.51701 | 26010 ft | 271 kts | 266° |
| 2026-04-30 03:01 | 18.46749 | -68.53688 | 25782 ft | 277 kts | 266° |
| 2026-04-30 03:01 | 18.46698 | -68.55769 | 24965 ft | 288 kts | 266° |
| 2026-04-30 03:01 | 18.46653 | -68.57854 | 24173 ft | 278 kts | 266° |
| 2026-04-30 03:01 | 18.46609 | -68.59841 | 23355 ft | 266 kts | 265° |
| 2026-04-30 03:02 | 18.46562 | -68.61750 | 22427 ft | 256 kts | 265° |
| 2026-04-30 03:02 | 18.46516 | -68.63587 | 21543 ft | 254 kts | 265° |
| 2026-04-30 03:02 | 18.46470 | -68.65454 | 20676 ft | 256 kts | 266° |
| 2026-04-30 03:02 | 18.46426 | -68.67324 | 19846 ft | 256 kts | 266° |
| 2026-04-30 03:03 | 18.46381 | -68.69224 | 19006 ft | 255 kts | 266° |
| 2026-04-30 03:03 | 18.46291 | -68.72918 | 17299 ft | 252 kts | 266° |
| 2026-04-30 03:03 | 18.46247 | -68.74748 | 16609 ft | 247 kts | 266° |
| 2026-04-30 03:04 | 18.46203 | -68.76545 | 16427 ft | 245 kts | 266° |
| 2026-04-30 03:04 | 18.46157 | -68.78352 | 16258 ft | 248 kts | 266° |
| 2026-04-30 03:04 | 18.46112 | -68.80178 | 16089 ft | 250 kts | 266° |
| 2026-04-30 03:04 | 18.46058 | -68.82009 | 15921 ft | 251 kts | 266° |
| 2026-04-30 03:05 | 18.46003 | -68.83852 | 15754 ft | 250 kts | 266° |
| 2026-04-30 03:05 | 18.45949 | -68.85679 | 15585 ft | 250 kts | 266° |
| 2026-04-30 03:05 | 18.45897 | -68.87511 | 15425 ft | 250 kts | 266° |
| 2026-04-30 03:05 | 18.45843 | -68.89338 | 15258 ft | 249 kts | 266° |
| 2026-04-30 03:06 | 18.45790 | -68.91161 | 15091 ft | 249 kts | 266° |
| 2026-04-30 03:06 | 18.45736 | -68.92979 | 14929 ft | 248 kts | 266° |
| 2026-04-30 03:06 | 18.45683 | -68.94797 | 14766 ft | 248 kts | 266° |
| 2026-04-30 03:06 | 18.45629 | -68.96608 | 14602 ft | 248 kts | 266° |
| 2026-04-30 03:07 | 18.45575 | -68.98425 | 14441 ft | 247 kts | 267° |
| 2026-04-30 03:07 | 18.45521 | -69.00236 | 14283 ft | 247 kts | 266° |
| 2026-04-30 03:07 | 18.45467 | -69.02045 | 14123 ft | 247 kts | 267° |
| 2026-04-30 03:07 | 18.45415 | -69.03828 | 13964 ft | 246 kts | 267° |
| 2026-04-30 03:08 | 18.45360 | -69.05621 | 13805 ft | 245 kts | 267° |
| 2026-04-30 03:08 | 18.45306 | -69.07410 | 13627 ft | 244 kts | 267° |
| 2026-04-30 03:08 | 18.45252 | -69.09195 | 13443 ft | 243 kts | 267° |
| 2026-04-30 03:08 | 18.45198 | -69.10974 | 13266 ft | 243 kts | 267° |
| 2026-04-30 03:09 | 18.45144 | -69.12751 | 13087 ft | 242 kts | 267° |
| 2026-04-30 03:09 | 18.45089 | -69.14523 | 12912 ft | 241 kts | 267° |
| 2026-04-30 03:09 | 18.45036 | -69.16289 | 12734 ft | 241 kts | 267° |
| 2026-04-30 03:09 | 18.44981 | -69.18050 | 12556 ft | 240 kts | 267° |
| 2026-04-30 03:10 | 18.44926 | -69.19808 | 12381 ft | 240 kts | 267° |
| 2026-04-30 03:10 | 18.44872 | -69.21567 | 12210 ft | 240 kts | 267° |
| 2026-04-30 03:10 | 18.44818 | -69.23294 | 12039 ft | 239 kts | 267° |
| 2026-04-30 03:10 | 18.44764 | -69.25047 | 11865 ft | 238 kts | 267° |
| 2026-04-30 03:11 | 18.44709 | -69.26789 | 11695 ft | 238 kts | 267° |
| 2026-04-30 03:11 | 18.44654 | -69.28535 | 11524 ft | 238 kts | 268° |
| 2026-04-30 03:11 | 18.44600 | -69.30270 | 11358 ft | 237 kts | 268° |
| 2026-04-30 03:11 | 18.44545 | -69.32003 | 11242 ft | 235 kts | 268° |
| 2026-04-30 03:12 | 18.44491 | -69.33717 | 11238 ft | 235 kts | 268° |
| 2026-04-30 03:12 | 18.44441 | -69.35290 | 11240 ft | 236 kts | 268° |
| 2026-04-30 03:12 | 18.44385 | -69.37017 | 11244 ft | 236 kts | 267° |
| 2026-04-30 03:12 | 18.44330 | -69.38748 | 11244 ft | 236 kts | 268° |
| 2026-04-30 03:13 | 18.44276 | -69.40474 | 11246 ft | 236 kts | 268° |
| 2026-04-30 03:13 | 18.44220 | -69.42210 | 11245 ft | 236 kts | 267° |
| 2026-04-30 03:13 | 18.44164 | -69.43941 | 11247 ft | 236 kts | 267° |
| 2026-04-30 03:13 | 18.44108 | -69.45657 | 11244 ft | 236 kts | 267° |
| 2026-04-30 03:14 | 18.44052 | -69.47383 | 11249 ft | 236 kts | 268° |
| 2026-04-30 03:14 | 18.43996 | -69.49109 | 11252 ft | 236 kts | 267° |
| 2026-04-30 03:14 | 18.43940 | -69.50827 | 11252 ft | 236 kts | 267° |
| 2026-04-30 03:14 | 18.43884 | -69.52572 | 11257 ft | 235 kts | 267° |
| 2026-04-30 03:15 | 18.43827 | -69.54305 | 11261 ft | 236 kts | 267° |
| 2026-04-30 03:15 | 18.43770 | -69.56031 | 11260 ft | 236 kts | 267° |
| 2026-04-30 03:15 | 18.43713 | -69.57766 | 11121 ft | 239 kts | 267° |
| 2026-04-30 03:15 | 18.43655 | -69.59513 | 10768 ft | 237 kts | 268° |
| 2026-04-30 03:16 | 18.43584 | -69.61232 | 10418 ft | 234 kts | 266° |
| 2026-04-30 03:16 | 18.43481 | -69.62918 | 10073 ft | 233 kts | 266° |
| 2026-04-30 03:16 | 18.43368 | -69.64618 | 9711 ft | 232 kts | 266° |
| 2026-04-30 03:16 | 18.43248 | -69.66338 | 9326 ft | 232 kts | 266° |
| 2026-04-30 03:17 | 18.43127 | -69.68032 | 8951 ft | 231 kts | 266° |
| 2026-04-30 03:17 | 18.43007 | -69.69699 | 8587 ft | 231 kts | 266° |
| 2026-04-30 03:17 | 18.42885 | -69.71381 | 8211 ft | 230 kts | 266° |
| 2026-04-30 03:17 | 18.42760 | -69.73051 | 8116 ft | 227 kts | 266° |
| 2026-04-30 03:18 | 18.42637 | -69.74700 | 8117 ft | 228 kts | 266° |
| 2026-04-30 03:18 | 18.42512 | -69.76370 | 8118 ft | 229 kts | 266° |
| 2026-04-30 03:18 | 18.42388 | -69.78054 | 8116 ft | 230 kts | 266° |
| 2026-04-30 03:18 | 18.42268 | -69.79664 | 8117 ft | 205 kts | 266° |
| 2026-04-30 03:19 | 18.42160 | -69.81122 | 7511 ft | 201 kts | 266° |
| 2026-04-30 03:19 | 18.42046 | -69.82603 | 6810 ft | 204 kts | 266° |
| 2026-04-30 03:19 | 18.41928 | -69.84092 | 6102 ft | 205 kts | 266° |
| 2026-04-30 03:19 | 18.41805 | -69.85590 | 5378 ft | 205 kts | 266° |
| 2026-04-30 03:20 | 18.41677 | -69.87089 | 4659 ft | 206 kts | 266° |
| 2026-04-30 03:20 | 18.41547 | -69.88536 | 4428 ft | 185 kts | 266° |
| 2026-04-30 03:20 | 18.41594 | -69.89777 | 4413 ft | 160 kts | 293° |
| 2026-04-30 03:20 | 18.42151 | -69.90754 | 4107 ft | 162 kts | 306° |
| 2026-04-30 03:21 | 18.42802 | -69.91794 | 3517 ft | 173 kts | 306° |
| 2026-04-30 03:21 | 18.43471 | -69.92875 | 2912 ft | 178 kts | 305° |
| 2026-04-30 03:21 | 18.44151 | -69.93929 | 2475 ft | 171 kts | 314° |
| 2026-04-30 03:21 | 18.45044 | -69.94697 | 2062 ft | 163 kts | 328° |
| 2026-04-30 03:22 | 18.45947 | -69.95352 | 1937 ft | 149 kts | 328° |
| 2026-04-30 03:22 | 18.46772 | -69.95959 | 1929 ft | 141 kts | 327° |
| 2026-04-30 03:22 | 18.47554 | -69.96542 | 1951 ft | 135 kts | 328° |
| 2026-04-30 03:22 | 18.48308 | -69.97086 | 1966 ft | 131 kts | 330° |
| 2026-04-30 03:23 | 18.48487 | -69.97210 | 1937 ft | 131 kts | 330° |
| 2026-04-30 03:23 | 18.48852 | -69.97461 | 1906 ft | 118 kts | 330° |
| 2026-04-30 03:23 | 18.49599 | -69.97951 | 1683 ft | 130 kts | 332° |
| 2026-04-30 03:24 | 18.50385 | -69.98359 | 1552 ft | 124 kts | 341° |
| 2026-04-30 03:24 | 18.51192 | -69.98652 | 1439 ft | 110 kts | 344° |
| 2026-04-30 03:24 | 18.51888 | -69.98848 | 1212 ft | 105 kts | 349° |
| 2026-04-30 03:24 | 18.52608 | -69.98977 | 1062 ft | 106 kts | 355° |
| 2026-04-30 03:25 | 18.53337 | -69.99013 | 901 ft | 105 kts | 2° |
| 2026-04-30 03:25 | 18.54071 | -69.98969 | 744 ft | 107 kts | 7° |
| 2026-04-30 03:25 | 18.54807 | -69.98862 | 568 ft | 104 kts | 7° |
| 2026-04-30 03:25 | 18.55515 | -69.98785 | 351 ft | 101 kts | 7° |
| 2026-04-30 03:26 | 18.56205 | -69.98694 | 173 ft | 97 kts | 6° |
| 2026-04-30 03:26 | 18.56792 | -69.98620 | 92 ft | 71 kts | 4° |
| 2026-04-30 03:26 | 18.57207 | -69.98570 | 94 ft | 41 kts | 5° |
| 2026-04-30 03:26 | 18.57273 | -69.98549 | 94 ft | 3 kts | 47° |
| 2026-04-30 03:27 | 18.57276 | -69.98545 | 94 ft | 0 kts | 47° |
| 2026-04-30 03:27 | 18.57317 | -69.98503 | 95 ft | 13 kts | 42° |
| 2026-04-30 03:27 | 18.57370 | -69.98455 | 96 ft | 8 kts | 31° |
| 2026-04-30 03:27 | 18.57423 | -69.98417 | 96 ft | 12 kts | 35° |
| 2026-04-30 03:28 | 18.57473 | -69.98378 | 97 ft | 13 kts | 41° |
| 2026-04-30 03:28 | 18.57532 | -69.98330 | 97 ft | 9 kts | 9° |
| 2026-04-30 03:28 | 18.57553 | -69.98327 | 97 ft | 5 kts | 13° |
| 2026-04-30 03:28 | 18.57608 | -69.98323 | 97 ft | 8 kts | 13° |
| 2026-04-30 03:29 | 18.57658 | -69.98315 | 97 ft | 2 kts | 29° |
| 2026-04-30 03:29 | 18.57639 | -69.98281 | 97 ft | 2 kts | 97° |
| 2026-04-30 03:29 | 18.57639 | -69.98278 | 97 ft | 0 kts | 97° |